White House, Tennessee
Current Conditions -  °F | °C
As of 10:15 AM on Sunday 25 Jan 2015 (Local Time) from KM91 Reporting Station
Clear Clear  
Wind Chill: 42°   Ceiling: Unl
Heat Index: 46°   Visibility: 10mi
Dew Point: 37°   Wind: 9mph
Humidity: 71%   Direction: 200°SSW
Pressure: 29.7"   Gusts: NA
Location:  36.46°N, 86.67°W
Report Text: KM91 251615Z AUTO 20008KT 10SM CLR 08/03 A2970 RMK
Loading
Personal Weather Stations






























Interactive Weather Map New forecast layout! Learn more

10-Day Weather Forecast

Advertisements
Track Severe Weather on mobile